Time,TemperatureF,DewpointF,PressureIn,WindDirection,WindDirectionDegrees,WindSpeedMPH,WindSpeedGustMPH,Humidity,HourlyPrecipIn,Conditions,Clouds,dailyrainin,SoftwareType,DateUTC
2013-04-30 00:02:00,62.8,42.3,30.05,South,169,11.9,15.0,47,0.00,,---,0.00,VWS V12.08,2013-04-30 05:02:00,
2013-04-30 00:17:00,62.4,43.0,30.05,South,183,10.1,15.0,49,0.00,,---,0.00,VWS V12.08,2013-04-30 05:17:00,
2013-04-30 00:32:00,61.9,43.6,30.05,South,182,7.6,11.0,51,0.00,,---,0.00,VWS V12.08,2013-04-30 05:32:00,
2013-04-30 00:47:00,61.5,43.8,30.05,SSE,167,8.3,12.8,52,0.00,,---,0.00,VWS V12.08,2013-04-30 05:47:00,
2013-04-30 01:02:00,61.2,43.9,30.05,SSE,165,8.1,10.5,53,0.00,,---,0.00,VWS V12.08,2013-04-30 06:02:00,
2013-04-30 01:17:00,60.8,44.1,30.05,South,171,7.6,9.2,54,0.00,,---,0.00,VWS V12.08,2013-04-30 06:17:00,
2013-04-30 01:32:00,60.3,45.0,30.05,SSE,161,5.8,8.7,57,0.00,,---,0.00,VWS V12.08,2013-04-30 06:32:00,
2013-04-30 01:47:00,60.1,45.3,30.05,South,169,5.4,8.7,58,0.00,,---,0.00,VWS V12.08,2013-04-30 06:47:00,
2013-04-30 02:02:00,59.5,45.7,30.05,SSE,164,5.4,8.7,60,0.00,,---,0.00,VWS V12.08,2013-04-30 07:02:00,
2013-04-30 02:17:00,59.5,45.2,30.05,SSE,153,7.2,8.3,59,0.00,,---,0.00,VWS V12.08,2013-04-30 07:17:00,
2013-04-30 02:32:00,59.7,45.8,30.05,South,187,6.7,8.7,60,0.00,,---,0.00,VWS V12.08,2013-04-30 07:32:00,
2013-04-30 02:47:00,61.2,43.4,30.05,South,176,8.7,10.1,52,0.00,,---,0.00,VWS V12.08,2013-04-30 07:47:00,
2013-04-30 03:02:00,62.1,42.2,30.05,SSE,154,7.6,13.2,48,0.00,,---,0.00,VWS V12.08,2013-04-30 08:02:00,
2013-04-30 03:17:00,62.2,41.8,30.05,South,179,10.5,13.6,47,0.00,,---,0.00,VWS V12.08,2013-04-30 08:17:00,
2013-04-30 03:32:00,62.2,42.3,30.05,South,175,8.7,12.8,48,0.00,,---,0.00,VWS V12.08,2013-04-30 08:32:00,
2013-04-30 03:47:00,62.2,42.3,30.05,South,181,6.3,14.1,48,0.00,,---,0.00,VWS V12.08,2013-04-30 08:47:00,
2013-04-30 04:02:00,62.8,42.3,30.05,South,189,17.4,17.4,47,0.00,,---,0.00,VWS V12.08,2013-04-30 09:02:00,
2013-04-30 04:17:00,63.0,41.9,30.05,West,265,10.5,18.8,46,0.00,,---,0.00,VWS V12.08,2013-04-30 09:17:00,
2013-04-30 04:32:00,62.6,43.2,30.05,WSW,253,3.1,15.0,49,0.00,,---,0.00,VWS V12.08,2013-04-30 09:32:00,
2013-04-30 04:47:00,62.2,43.4,30.05,SSW,213,2.7,9.2,50,0.00,,---,0.00,VWS V12.08,2013-04-30 09:47:00,
2013-04-30 05:02:00,61.7,43.4,30.05,SSW,202,4.9,6.3,51,0.00,,---,0.00,VWS V12.08,2013-04-30 10:02:00,
2013-04-30 05:17:00,61.5,43.8,30.05,SW,215,6.3,8.7,52,0.00,,---,0.00,VWS V12.08,2013-04-30 10:17:00,
2013-04-30 05:46:00,61.7,43.9,30.05,SSW,194,6.3,13.2,52,0.00,,---,0.00,VWS V12.08,2013-04-30 10:46:00,
2013-04-30 06:01:00,60.8,46.4,30.05,SSW,210,7.6,10.5,59,0.00,,---,0.00,VWS V12.08,2013-04-30 11:01:00,
2013-04-30 06:16:00,60.4,50.2,30.05,WSW,241,5.8,10.5,69,0.00,,---,0.00,VWS V12.08,2013-04-30 11:16:00,
2013-04-30 06:31:00,60.4,51.0,30.05,SSW,194,5.4,16.3,71,0.00,,---,0.00,VWS V12.08,2013-04-30 11:31:00,
2013-04-30 06:46:00,59.9,52.3,30.05,SE,136,8.7,16.3,76,0.00,,---,0.00,VWS V12.08,2013-04-30 11:46:00,
2013-04-30 07:02:00,59.7,52.9,30.05,SSE,155,6.3,9.2,78,0.00,,---,0.00,VWS V12.08,2013-04-30 12:02:00,
2013-04-30 07:16:00,59.7,53.2,30.05,SSE,165,13.2,13.2,79,0.00,,---,0.00,VWS V12.08,2013-04-30 12:16:00,
2013-04-30 07:31:00,60.1,52.5,30.05,South,181,10.1,14.5,76,0.00,,---,0.00,VWS V12.08,2013-04-30 12:31:00,
2013-04-30 07:47:00,60.6,52.3,30.05,SSE,157,12.8,15.0,74,0.00,,---,0.00,VWS V12.08,2013-04-30 12:47:00,
2013-04-30 08:02:00,61.2,52.1,30.05,SSW,203,7.6,13.2,72,0.00,,---,0.00,VWS V12.08,2013-04-30 13:02:00,
2013-04-30 08:17:00,61.9,51.6,30.05,South,178,13.2,13.2,69,0.00,,---,0.00,VWS V12.08,2013-04-30 13:17:00,
2013-04-30 08:32:00,62.2,50.8,30.05,South,170,10.1,13.2,66,0.00,,---,0.00,VWS V12.08,2013-04-30 13:32:00,
2013-04-30 08:47:00,63.5,51.5,30.05,South,183,10.1,12.8,65,0.00,,---,0.00,VWS V12.08,2013-04-30 13:47:00,
2013-04-30 09:02:00,64.8,48.2,30.05,South,183,12.8,18.3,55,0.00,,---,0.00,VWS V12.08,2013-04-30 14:02:00,
2013-04-30 09:17:00,65.3,47.8,30.05,South,186,8.3,17.4,53,0.00,,---,0.00,VWS V12.08,2013-04-30 14:17:00,
2013-04-30 09:32:00,65.5,47.4,30.05,South,172,8.1,15.0,52,0.00,,---,0.00,VWS V12.08,2013-04-30 14:32:00,
2013-04-30 09:47:00,66.9,46.6,30.05,South,185,15.0,15.0,48,0.00,,---,0.00,VWS V12.08,2013-04-30 14:47:00,
2013-04-30 10:02:00,68.7,44.1,30.05,SSW,193,13.2,19.2,41,0.00,,---,0.00,VWS V12.08,2013-04-30 15:02:00,
2013-04-30 10:17:00,70.3,44.2,30.05,SSW,213,13.2,21.5,39,0.00,,---,0.00,VWS V12.08,2013-04-30 15:17:00,
2013-04-30 10:32:00,72.3,40.8,30.05,South,186,17.4,20.6,32,0.00,,---,0.00,VWS V12.08,2013-04-30 15:32:00,
2013-04-30 10:46:00,73.2,40.8,30.05,South,176,16.8,23.7,31,0.00,,---,0.00,VWS V12.08,2013-04-30 15:46:00,
2013-04-30 11:02:00,74.7,40.3,30.05,SSW,193,15.4,23.3,29,0.00,,---,0.00,VWS V12.08,2013-04-30 16:02:00,
2013-04-30 11:16:00,75.9,39.6,30.05,SSW,194,15.4,23.7,27,0.00,,---,0.00,VWS V12.08,2013-04-30 16:16:00,
2013-04-30 11:31:00,77.2,39.7,30.05,SW,214,15.9,23.7,26,0.00,,---,0.00,VWS V12.08,2013-04-30 16:31:00,
2013-04-30 11:46:00,78.4,38.7,30.05,SW,215,11.4,23.3,24,0.00,,---,0.00,VWS V12.08,2013-04-30 16:46:00,
2013-04-30 12:02:00,78.8,37.9,30.05,SSW,204,21.9,21.9,23,0.00,,---,0.00,VWS V12.08,2013-04-30 17:02:00,
2013-04-30 12:17:00,79.3,36.0,30.05,SW,231,21.5,24.6,21,0.00,,---,0.00,VWS V12.08,2013-04-30 17:17:00,
2013-04-30 12:32:00,80.1,36.7,30.05,SSW,203,19.2,28.0,21,0.00,,---,0.00,VWS V12.08,2013-04-30 17:32:00,
2013-04-30 12:47:00,80.2,36.8,30.05,SSW,192,22.4,25.7,21,0.00,,---,0.00,VWS V12.08,2013-04-30 17:47:00,
2013-04-30 13:02:00,80.8,36.0,30.05,SSW,199,17.4,26.2,20,0.00,,---,0.00,VWS V12.08,2013-04-30 18:02:00,
2013-04-30 13:17:00,81.1,36.3,30.05,SSW,203,11.4,25.7,20,0.00,,---,0.00,VWS V12.08,2013-04-30 18:17:00,
2013-04-30 13:32:00,81.7,36.8,30.05,SW,223,15.4,26.6,20,0.00,,---,0.00,VWS V12.08,2013-04-30 18:32:00,
2013-04-30 13:47:00,82.6,37.5,30.05,SW,217,23.7,26.6,20,0.00,,---,0.00,VWS V12.08,2013-04-30 18:47:00,
2013-04-30 14:02:00,83.5,38.2,30.05,SSW,205,13.6,28.0,20,0.00,,---,0.00,VWS V12.08,2013-04-30 19:02:00,
2013-04-30 14:17:00,83.7,38.4,30.05,SSW,198,23.3,32.0,20,0.00,,---,0.00,VWS V12.08,2013-04-30 19:17:00,
2013-04-30 14:32:00,84.4,37.7,30.05,South,187,12.8,28.4,19,0.00,,---,0.00,VWS V12.08,2013-04-30 19:32:00,
2013-04-30 14:47:00,84.2,37.5,30.05,South,176,28.9,30.6,19,0.00,,---,0.00,VWS V12.08,2013-04-30 19:47:00,
2013-04-30 15:02:00,84.9,38.1,30.05,SW,233,25.5,33.3,19,0.00,,---,0.00,VWS V12.08,2013-04-30 20:02:00,
2013-04-30 15:17:00,85.1,38.2,30.05,SSW,197,15.4,27.5,19,0.00,,---,0.00,VWS V12.08,2013-04-30 20:17:00,
2013-04-30 15:32:00,85.5,38.5,30.05,SW,226,20.6,26.6,19,0.00,,---,0.00,VWS V12.08,2013-04-30 20:32:00,
2013-04-30 15:47:00,84.9,38.1,30.05,SW,214,29.8,29.8,19,0.00,,---,0.00,VWS V12.08,2013-04-30 20:47:00,
2013-04-30 16:02:00,84.7,38.0,30.05,SW,219,13.2,31.1,19,0.00,,---,0.00,VWS V12.08,2013-04-30 21:02:00,
2013-04-30 16:17:00,84.9,38.1,30.05,SSW,204,17.9,28.0,19,0.00,,---,0.00,VWS V12.08,2013-04-30 21:17:00,
2013-04-30 16:32:00,85.1,38.2,30.05,SSW,192,14.1,26.2,19,0.00,,---,0.00,VWS V12.08,2013-04-30 21:32:00,
2013-04-30 16:47:00,84.2,37.5,30.05,SSW,205,19.7,29.3,19,0.00,,---,0.00,VWS V12.08,2013-04-30 21:47:00,
2013-04-30 17:02:00,84.6,37.8,30.05,South,177,9.2,26.2,19,0.00,,---,0.00,VWS V12.08,2013-04-30 22:02:00,
2013-04-30 17:17:00,83.5,38.2,30.05,WSW,237,15.0,26.6,20,0.00,,---,0.00,VWS V12.08,2013-04-30 22:17:00,
2013-04-30 17:32:00,82.6,37.5,30.05,SSW,212,13.6,25.1,20,0.00,,---,0.00,VWS V12.08,2013-04-30 22:32:00,
2013-04-30 17:46:00,83.1,37.9,30.05,SSW,211,19.7,26.2,20,0.00,,---,0.00,VWS V12.08,2013-04-30 22:46:00,
2013-04-30 18:02:00,82.8,37.6,30.05,SSW,208,11.9,21.5,20,0.00,,---,0.00,VWS V12.08,2013-04-30 23:02:00,
2013-04-30 18:16:00,82.2,37.2,30.05,SW,224,10.5,21.5,20,0.00,,---,0.00,VWS V12.08,2013-04-30 23:16:00,
2013-04-30 18:31:00,82.6,37.5,30.05,SSW,209,10.5,21.5,20,0.00,,---,0.00,VWS V12.08,2013-04-30 23:31:00,
2013-04-30 18:46:00,81.9,36.9,30.05,SSW,197,11.0,17.4,20,0.00,,---,0.00,VWS V12.08,2013-04-30 23:46:00,
2013-04-30 19:02:00,81.7,36.8,30.05,SW,225,11.0,21.5,20,0.00,,---,0.00,VWS V12.08,2013-05-01 00:02:00,
2013-04-30 19:16:00,81.0,36.2,30.05,SSW,206,14.5,21.9,20,0.00,,---,0.00,VWS V12.08,2013-05-01 00:16:00,
2013-04-30 19:31:00,80.1,36.7,30.05,SSW,203,10.5,15.4,21,0.00,,---,0.00,VWS V12.08,2013-05-01 00:31:00,
2013-04-30 19:47:00,78.4,35.3,30.05,South,187,9.6,13.2,21,0.00,,---,0.00,VWS V12.08,2013-05-01 00:47:00,
2013-04-30 20:02:00,77.9,34.9,30.05,SW,220,10.5,14.5,21,0.00,,---,0.00,VWS V12.08,2013-05-01 01:02:00,
2013-04-30 20:17:00,77.4,34.4,30.05,South,181,7.6,13.2,21,0.00,,---,0.00,VWS V12.08,2013-05-01 01:17:00,
2013-04-30 20:32:00,75.6,32.9,30.05,South,179,8.1,11.0,21,0.00,,---,0.00,VWS V12.08,2013-05-01 01:32:00,
2013-04-30 20:47:00,74.8,33.5,30.05,SSW,207,6.3,12.8,22,0.00,,---,0.00,VWS V12.08,2013-05-01 01:47:00,
2013-04-30 21:02:00,74.5,33.2,30.05,SSW,197,6.3,11.0,22,0.00,,---,0.00,VWS V12.08,2013-05-01 02:02:00,
2013-04-30 21:17:00,73.9,32.7,30.05,SSW,192,5.8,12.3,22,0.00,,---,0.00,VWS V12.08,2013-05-01 02:17:00,
2013-04-30 21:32:00,74.3,33.0,30.05,SSW,207,8.1,13.2,22,0.00,,---,0.00,VWS V12.08,2013-05-01 02:32:00,
2013-04-30 21:47:00,73.0,32.0,30.05,SSW,206,5.4,8.7,22,0.00,,---,0.00,VWS V12.08,2013-05-01 02:47:00,
2013-04-30 22:02:00,72.5,31.5,30.05,South,177,5.4,10.5,22,0.00,,---,0.00,VWS V12.08,2013-05-01 03:02:00,
2013-04-30 22:17:00,72.0,31.1,30.05,SSW,194,8.1,10.1,22,0.00,,---,0.00,VWS V12.08,2013-05-01 03:17:00,
2013-04-30 22:32:00,71.2,31.6,30.05,SSW,201,7.6,8.7,23,0.00,,---,0.00,VWS V12.08,2013-05-01 03:32:00,
2013-04-30 22:46:00,70.9,31.3,30.05,SSW,203,6.3,10.5,23,0.00,,---,0.00,VWS V12.08,2013-05-01 03:46:00,
2013-04-30 23:01:00,70.5,31.0,30.05,SSW,206,7.6,11.0,23,0.00,,---,0.00,VWS V12.08,2013-05-01 04:01:00,
2013-04-30 23:16:00,70.7,31.1,30.05,South,184,5.4,13.2,23,0.00,,---,0.00,VWS V12.08,2013-05-01 04:16:00,
2013-04-30 23:31:00,70.7,31.1,30.05,SSW,212,10.1,12.8,23,0.00,,---,0.00,VWS V12.08,2013-05-01 04:31:00,
2013-04-30 23:46:00,70.2,30.7,30.05,SSW,195,8.3,13.2,23,0.00,,---,0.00,VWS V12.08,2013-05-01 04:46:00,